Time;durP1;ratioP1;P1;durP2;ratioP2;P2;SDS_P1;SDS_P2;PMS_P1;PMS_P2;Temp;Humidity;BMP_temperature;BMP_pressure;BME280_temperature;BME280_humidity;BME280_pressure;Samples;Min_cycle;Max_cycle;Signal;HPM_P1;HPM_P2
2022/09/16 00:02:15;;;;;;;4.95;2.80;;;;;;;22.72;41.81;94416.63;5012147;28;20210;-70
2022/09/16 00:04:40;;;;;;;9.93;3.15;;;;;;;22.87;41.90;94422.22;5005994;28;20603;-69
2022/09/16 00:07:06;;;;;;;6.72;2.75;;;;;;;22.72;42.06;94405.91;5013354;28;20225;-70
2022/09/16 00:09:31;;;;;;;8.93;3.63;;;;;;;22.71;42.49;94406.16;5012316;28;20218;-71
2022/09/16 00:11:57;;;;;;;5.72;2.90;;;;;;;22.77;42.18;94413.22;5014289;28;20225;-71
2022/09/16 00:14:22;;;;;;;7.80;2.92;;;;;;;22.76;42.28;94409.72;5007417;28;20214;-70
2022/09/16 00:16:47;;;;;;;6.43;2.70;;;;;;;22.76;42.15;94411.59;5012648;28;20253;-70
2022/09/16 00:19:13;;;;;;;7.00;2.97;;;;;;;22.66;42.50;94417.59;5009697;28;20260;-70
2022/09/16 00:21:38;;;;;;;6.88;2.83;;;;;;;22.50;43.18;94411.13;5020057;28;20222;-70
2022/09/16 00:24:04;;;;;;;5.75;3.10;;;;;;;22.38;43.59;94408.53;5008395;28;20214;-70
2022/09/16 00:26:29;;;;;;;6.70;2.88;;;;;;;22.44;43.38;94417.47;5008819;28;20346;-70
2022/09/16 00:28:55;;;;;;;6.57;2.88;;;;;;;22.54;43.12;94409.63;5011637;28;20226;-70
2022/09/16 00:31:20;;;;;;;5.32;2.95;;;;;;;22.60;42.62;94411.31;5010740;28;20735;-70
2022/09/16 00:33:46;;;;;;;7.20;2.88;;;;;;;22.40;43.15;94417.16;5009817;28;20222;-70
2022/09/16 00:36:15;;;;;;;6.70;2.72;;;;;;;22.55;42.58;94413.91;5008879;28;20556;-70
2022/09/16 00:38:41;;;;;;;7.05;2.90;;;;;;;22.45;42.60;94413.72;5010307;28;20210;-70
2022/09/16 00:41:07;;;;;;;5.38;2.53;;;;;;;22.48;42.53;94407.91;5009918;28;20203;-70
2022/09/16 00:44:25;;;;;;;6.68;2.92;;;;;;;22.46;42.70;94412.69;5023328;28;20485;-71
2022/09/16 00:46:51;;;;;;;7.00;2.58;;;;;;;22.52;42.42;94419.75;4964504;28;20270;-71
2022/09/16 00:49:25;;;;;;;6.97;2.60;;;;;;;22.46;42.41;94410.00;4981297;28;20817;-71
2022/09/16 00:51:56;;;;;;;6.72;2.90;;;;;;;22.52;43.09;94411.72;4964851;28;20231;-71
2022/09/16 00:54:23;;;;;;;4.10;2.53;;;;;;;22.39;43.00;94410.13;4967793;28;20247;-71
2022/09/16 00:56:52;;;;;;;8.52;3.13;;;;;;;22.26;43.57;94421.13;4982523;28;20212;-71
2022/09/16 00:59:25;;;;;;;6.53;2.55;;;;;;;22.29;43.82;94427.88;4969972;28;20219;-71
2022/09/16 01:02:17;;;;;;;8.80;2.88;;;;;;;22.32;43.81;94440.78;4964514;28;20231;-71
2022/09/16 01:04:50;;;;;;;6.25;2.30;;;;;;;22.28;43.29;94434.31;4983216;28;20232;-71
2022/09/16 01:07:29;;;;;;;5.40;2.60;;;;;;;22.27;43.42;94425.47;4967878;28;20219;-71
2022/09/16 01:09:55;;;;;;;7.68;2.60;;;;;;;22.12;44.08;94415.22;4967896;28;20350;-71
2022/09/16 01:12:20;;;;;;;9.93;2.95;;;;;;;22.16;43.79;94428.94;4981646;28;20263;-71
2022/09/16 01:14:52;;;;;;;7.50;2.58;;;;;;;22.18;43.36;94418.81;4986318;28;20231;-70
2022/09/16 01:17:31;;;;;;;5.97;2.35;;;;;;;22.24;42.79;94420.59;4964256;28;20207;-71
2022/09/16 01:20:09;;;;;;;6.50;2.20;;;;;;;22.29;42.79;94435.91;4973867;28;20282;-71
2022/09/16 01:22:44;;;;;;;7.20;2.15;;;;;;;22.27;42.84;94432.69;5013679;28;20234;-71
2022/09/16 01:25:19;;;;;;;6.10;2.58;;;;;;;22.35;42.52;94435.78;5007844;28;20222;-71
2022/09/16 01:28:05;;;;;;;8.25;2.53;;;;;;;22.19;43.26;94441.91;5008995;28;20233;-71
2022/09/16 01:30:48;;;;;;;8.07;2.75;;;;;;;22.20;43.17;94447.00;5010658;28;20894;-71
2022/09/16 01:33:24;;;;;;;7.13;2.63;;;;;;;22.24;43.43;94439.34;5010308;28;20229;-70
2022/09/16 01:36:08;;;;;;;6.13;2.75;;;;;;;22.25;43.04;94432.91;5011120;28;20218;-71
2022/09/16 01:38:36;;;;;;;7.80;2.80;;;;;;;22.15;43.56;94430.00;5005125;28;20293;-70
2022/09/16 01:41:04;;;;;;;6.00;2.47;;;;;;;22.15;43.47;94419.28;5005426;28;20285;-70
2022/09/16 01:43:58;;;;;;;6.28;2.50;;;;;;;22.08;43.38;94419.44;5002850;28;20226;-70
2022/09/16 01:46:53;;;;;;;6.55;2.35;;;;;;;22.06;43.42;94428.75;5006070;28;20673;-70
2022/09/16 01:49:26;;;;;;;7.28;2.40;;;;;;;22.18;42.86;94425.00;5007297;28;20243;-70
2022/09/16 01:51:56;;;;;;;5.85;2.45;;;;;;;22.14;43.24;94418.50;5009978;28;20223;-71
2022/09/16 01:54:37;;;;;;;7.20;2.28;;;;;;;21.99;44.02;94426.22;5010711;28;20402;-71
2022/09/16 01:57:40;;;;;;;4.68;2.35;;;;;;;22.12;43.51;94428.63;5006121;28;20874;-70
2022/09/16 02:00:10;;;;;;;10.85;2.90;;;;;;;22.08;43.70;94421.28;5008820;28;20230;-71
2022/09/16 02:02:47;;;;;;;6.35;3.00;;;;;;;22.08;43.33;94399.88;5005814;28;20211;-70
2022/09/16 02:05:23;;;;;;;6.68;2.90;;;;;;;22.13;43.59;94403.47;5010035;28;20209;-71
2022/09/16 02:07:55;;;;;;;5.35;2.60;;;;;;;22.11;43.53;94404.78;5005149;28;20250;-71
2022/09/16 02:10:36;;;;;;;5.53;2.33;;;;;;;22.17;42.92;94417.19;5007034;28;20259;-71
2022/09/16 02:13:13;;;;;;;8.18;3.15;;;;;;;22.08;43.05;94405.22;5007599;28;20249;-71
2022/09/16 02:15:42;;;;;;;7.80;2.80;;;;;;;22.18;42.84;94411.63;5002146;28;20237;-71
2022/09/16 02:18:11;;;;;;;5.15;2.13;;;;;;;22.13;43.02;94405.31;5013736;28;20558;-71
2022/09/16 02:20:41;;;;;;;4.50;2.17;;;;;;;22.19;43.31;94405.22;5012110;28;20225;-70
2022/09/16 02:23:16;;;;;;;8.55;2.38;;;;;;;22.16;43.12;94404.84;5014433;28;20213;-71
2022/09/16 02:25:45;;;;;;;5.20;2.42;;;;;;;21.95;43.90;94400.97;5001822;28;20588;-71
2022/09/16 02:28:14;;;;;;;8.43;2.38;;;;;;;21.98;43.67;94387.13;5008372;28;20224;-72
2022/09/16 02:30:44;;;;;;;7.10;2.72;;;;;;;22.07;43.61;94417.00;5005525;28;20301;-70
2022/09/16 02:33:13;;;;;;;7.47;2.40;;;;;;;22.15;42.49;94398.69;5008335;28;20357;-70
2022/09/16 02:35:40;;;;;;;6.13;2.25;;;;;;;22.06;43.45;94424.22;5007479;28;20205;-70
2022/09/16 02:38:13;;;;;;;10.82;2.95;;;;;;;22.01;43.41;94424.91;5015246;28;20203;-70
2022/09/16 02:40:47;;;;;;;5.65;2.42;;;;;;;22.00;43.76;94417.16;5005062;28;20591;-70
2022/09/16 02:43:14;;;;;;;6.10;2.42;;;;;;;21.98;43.43;94433.44;5006927;28;20226;-70
2022/09/16 02:46:02;;;;;;;9.40;3.05;;;;;;;22.01;43.37;94435.63;5007581;28;20644;-70
2022/09/16 02:49:01;;;;;;;7.10;2.45;;;;;;;21.96;43.77;94416.78;5004792;28;20226;-70
2022/09/16 02:51:30;;;;;;;8.88;2.97;;;;;;;22.00;43.50;94417.16;4952243;28;20242;-71
2022/09/16 02:54:04;;;;;;;7.60;2.30;;;;;;;22.04;43.19;94426.31;4960271;28;20247;-70
2022/09/16 02:56:34;;;;;;;6.15;2.40;;;;;;;22.02;43.20;94420.38;4958353;28;20288;-69
2022/09/16 02:59:01;;;;;;;6.72;2.53;;;;;;;21.99;43.33;94426.22;4963445;28;20227;-70
2022/09/16 03:01:32;;;;;;;9.10;2.97;;;;;;;22.04;43.00;94420.97;4933123;28;20236;-71
2022/09/16 03:03:58;;;;;;;4.50;2.20;;;;;;;22.03;43.21;94438.09;4944134;28;20251;-72
2022/09/16 03:06:26;;;;;;;8.43;3.53;;;;;;;21.89;43.81;94437.53;4950495;28;20290;-71
2022/09/16 03:08:56;;;;;;;6.63;2.72;;;;;;;21.93;43.79;94446.72;4959884;28;20757;-71
2022/09/16 03:11:22;;;;;;;6.70;2.50;;;;;;;21.90;44.08;94449.06;4961875;28;20643;-71
2022/09/16 03:14:13;;;;;;;6.13;2.75;;;;;;;21.87;44.33;94458.38;4949359;28;20228;-71
2022/09/16 03:17:06;;;;;;;6.68;2.35;;;;;;;21.99;44.20;94456.47;4910392;29;20418;-71
2022/09/16 03:20:10;;;;;;;7.75;2.90;;;;;;;21.77;45.42;94463.50;4921230;29;20239;-71
2022/09/16 03:22:42;;;;;;;7.90;3.03;;;;;;;21.88;45.17;94470.69;4930893;29;20232;-71
2022/09/16 03:25:23;;;;;;;6.95;3.00;;;;;;;21.99;44.94;94452.97;4928479;29;20237;-71
2022/09/16 03:28:14;;;;;;;9.27;3.17;;;;;;;21.90;45.63;94467.78;4948269;28;20220;-71
2022/09/16 03:31:01;;;;;;;4.78;2.67;;;;;;;21.89;45.66;94458.94;4972866;28;20235;-71
2022/09/16 03:34:10;;;;;;;9.85;3.53;;;;;;;21.87;46.11;94452.22;4969201;28;20251;-72
2022/09/16 03:36:43;;;;;;;9.45;6.40;;;;;;;21.77;46.69;94442.09;4909292;29;20233;-71
2022/09/16 03:39:10;;;;;;;6.22;3.20;;;;;;;21.74;46.80;94437.22;4915506;29;20218;-72
2022/09/16 03:41:37;;;;;;;9.40;3.92;;;;;;;21.57;47.24;94437.09;4896332;29;20214;-70
2022/09/16 03:44:02;;;;;;;8.55;3.53;;;;;;;21.53;47.33;94436.75;4904629;29;20292;-71
2022/09/16 03:46:28;;;;;;;5.82;3.45;;;;;;;21.58;47.07;94436.88;4899125;29;20611;-71
2022/09/16 03:48:55;;;;;;;10.18;3.15;;;;;;;21.59;46.90;94421.63;4913220;29;20241;-71
2022/09/16 03:51:21;;;;;;;12.43;3.28;;;;;;;21.55;47.04;94421.28;4901183;29;20222;-71
2022/09/16 03:53:46;;;;;;;6.93;2.78;;;;;;;21.53;47.08;94426.06;4930897;28;20215;-71
2022/09/16 03:56:12;;;;;;;8.35;2.72;;;;;;;21.47;47.38;94424.31;4957360;28;20207;-71
2022/09/16 03:58:37;;;;;;;12.20;3.47;;;;;;;21.32;47.65;94422.06;4952689;28;20225;-70
2022/09/16 04:01:03;;;;;;;12.50;3.63;;;;;;;21.44;47.66;94423.97;4956732;28;20596;-71
2022/09/16 04:03:28;;;;;;;10.77;2.90;;;;;;;21.44;47.38;94422.13;4970779;28;20224;-71
2022/09/16 04:05:55;;;;;;;7.10;3.05;;;;;;;21.41;47.47;94430.63;4965405;28;20221;-71
2022/09/16 04:08:21;;;;;;;8.63;2.90;;;;;;;21.39;47.40;94453.28;4968821;28;20218;-72
2022/09/16 04:10:56;;;;;;;7.18;2.67;;;;;;;21.25;47.88;94464.19;4964883;28;20310;-72
2022/09/16 04:13:23;;;;;;;11.77;3.05;;;;;;;21.30;47.27;94466.13;4977388;28;20231;-74
2022/09/16 04:15:48;;;;;;;8.07;3.42;;;;;;;21.36;47.15;94465.22;5009787;28;20222;-70
2022/09/16 04:18:14;;;;;;;9.90;3.55;;;;;;;21.35;47.16;94468.94;5006895;28;20309;-71
2022/09/16 04:20:39;;;;;;;10.80;3.60;;;;;;;21.44;46.74;94472.09;5012189;28;20638;-71
2022/09/16 04:23:05;;;;;;;12.98;5.22;;;;;;;21.45;46.54;94471.88;5010336;28;20571;-68
2022/09/16 04:25:30;;;;;;;10.48;3.63;;;;;;;21.54;46.17;94480.38;5010124;28;20218;-69
2022/09/16 04:27:56;;;;;;;9.20;4.30;;;;;;;21.30;47.26;94491.03;5011291;28;20231;-69
2022/09/16 04:30:21;;;;;;;9.05;4.07;;;;;;;21.27;47.69;94488.00;5009404;28;20238;-70
2022/09/16 04:32:47;;;;;;;12.70;4.50;;;;;;;21.29;47.68;94484.06;5009393;28;20297;-69
2022/09/16 04:35:12;;;;;;;9.75;3.50;;;;;;;21.44;47.96;94486.31;5008966;28;20230;-69
2022/09/16 04:37:37;;;;;;;11.98;4.10;;;;;;;21.52;48.27;94491.31;5008740;28;20221;-70
2022/09/16 04:40:03;;;;;;;13.48;4.10;;;;;;;21.44;47.76;94478.28;5010509;28;20236;-70
2022/09/16 04:42:29;;;;;;;8.25;4.30;;;;;;;21.44;47.66;94478.28;5010009;28;20226;-70
2022/09/16 04:44:54;;;;;;;16.45;4.63;;;;;;;21.51;47.29;94473.63;5010557;28;20234;-69
2022/09/16 04:47:20;;;;;;;11.98;3.78;;;;;;;21.45;47.67;94471.06;5012391;28;20202;-70
2022/09/16 04:49:45;;;;;;;8.60;3.88;;;;;;;21.45;47.37;94471.88;5011760;28;20226;-70
2022/09/16 04:52:10;;;;;;;8.32;3.53;;;;;;;21.55;46.21;94485.50;5004039;28;20306;-70
2022/09/16 04:54:36;;;;;;;9.10;3.60;;;;;;;21.45;47.75;94479.91;5007932;28;20876;-70
2022/09/16 04:57:01;;;;;;;7.80;3.83;;;;;;;21.31;47.75;94484.63;5006432;28;20231;-70
2022/09/16 04:59:27;;;;;;;9.98;3.90;;;;;;;21.40;47.93;94487.00;5011730;28;20222;-72
2022/09/16 05:01:53;;;;;;;8.85;3.35;;;;;;;21.18;48.33;94490.22;5010303;28;20246;-67
2022/09/16 05:04:18;;;;;;;12.48;3.63;;;;;;;21.23;47.61;94482.31;5008893;28;20222;-68
2022/09/16 05:06:44;;;;;;;12.60;3.80;;;;;;;21.43;47.17;94475.84;5010031;28;20230;-69
2022/09/16 05:09:11;;;;;;;12.57;4.57;;;;;;;21.23;48.74;94476.97;5008669;28;20544;-70
2022/09/16 05:11:38;;;;;;;15.85;4.65;;;;;;;21.39;48.22;94474.69;5014154;28;20206;-68
2022/09/16 05:14:07;;;;;;;15.38;4.15;;;;;;;21.40;48.32;94481.66;5006083;28;20227;-69
2022/09/16 05:16:33;;;;;;;13.32;4.65;;;;;;;21.58;47.30;94474.31;5009095;28;20262;-67
2022/09/16 05:19:00;;;;;;;13.48;4.93;;;;;;;21.70;46.80;94473.50;5011534;28;20257;-67
2022/09/16 05:21:27;;;;;;;12.93;4.15;;;;;;;21.81;46.76;94478.03;5010304;28;20219;-68
2022/09/16 05:23:54;;;;;;;12.30;4.50;;;;;;;22.14;46.09;94471.22;5010744;28;20434;-67
2022/09/16 05:26:25;;;;;;;22.92;4.63;;;;;;;22.30;45.84;94456.31;5021794;28;20203;-68
2022/09/16 05:28:51;;;;;;;16.13;5.18;;;;;;;22.33;45.37;94456.63;5007012;28;20223;-68
2022/09/16 05:31:18;;;;;;;17.17;3.90;;;;;;;22.42;46.17;94455.19;5007552;28;20233;-68
2022/09/16 05:33:46;;;;;;;11.85;4.60;;;;;;;22.48;44.22;94466.00;5010428;28;20376;-68
2022/09/16 05:36:16;;;;;;;14.77;4.60;;;;;;;22.63;43.94;94459.06;5008435;28;20234;-68
2022/09/16 05:38:42;;;;;;;19.42;4.85;;;;;;;22.61;45.05;94452.31;5010131;28;20206;-67
2022/09/16 05:41:08;;;;;;;14.23;4.25;;;;;;;22.66;44.17;94447.06;5010882;28;20710;-67
2022/09/16 05:43:34;;;;;;;11.68;4.03;;;;;;;22.58;44.52;94444.78;5005350;28;20671;-67
2022/09/16 05:46:00;;;;;;;11.65;4.22;;;;;;;22.61;45.01;94438.94;5002781;28;20221;-66
2022/09/16 05:48:26;;;;;;;13.00;4.30;;;;;;;22.57;43.74;94451.19;5006971;28;20362;-67
2022/09/16 05:50:52;;;;;;;13.45;4.15;;;;;;;22.61;42.97;94446.97;5009215;28;20195;-67
2022/09/16 05:53:17;;;;;;;9.05;3.63;;;;;;;22.70;43.41;94436.69;5011026;28;20202;-66
2022/09/16 05:56:13;;;;;;;15.48;4.32;;;;;;;22.89;43.56;94454.19;5009694;28;20264;-66
2022/09/16 05:58:38;;;;;;;10.70;4.00;;;;;;;22.93;41.96;94455.31;5006594;28;20229;-67
2022/09/16 06:01:11;;;;;;;12.57;3.58;;;;;;;22.99;41.39;94457.06;5004156;28;20224;-67
2022/09/16 06:03:38;;;;;;;16.20;3.80;;;;;;;23.07;40.70;94458.53;5005770;28;20258;-66
2022/09/16 06:06:09;;;;;;;12.98;3.53;;;;;;;23.08;40.92;94439.50;5002246;28;20233;-68
2022/09/16 06:08:36;;;;;;;18.05;4.40;;;;;;;23.14;42.86;94444.94;5020802;28;20198;-67
2022/09/16 06:11:07;;;;;;;11.68;3.95;;;;;;;23.29;41.04;94455.94;5007541;28;20194;-68
2022/09/16 06:13:33;;;;;;;12.25;3.90;;;;;;;23.40;40.49;94455.03;5000681;28;20245;-68
2022/09/16 06:16:00;;;;;;;10.52;3.22;;;;;;;23.51;39.80;94448.75;5010168;28;20999;-68
2022/09/16 06:18:27;;;;;;;14.95;3.33;;;;;;;23.52;40.76;94452.25;4991593;28;20293;-68
2022/09/16 06:20:53;;;;;;;13.10;3.50;;;;;;;23.56;39.91;94454.19;5008661;28;20198;-68
2022/09/16 06:23:19;;;;;;;12.35;3.40;;;;;;;23.42;39.73;94441.38;5008237;28;20203;-68
2022/09/16 06:25:44;;;;;;;12.40;3.53;;;;;;;23.51;39.39;94439.88;5008150;28;20230;-68
2022/09/16 06:28:10;;;;;;;10.90;3.67;;;;;;;23.45;39.55;94443.56;5008397;28;20219;-69
2022/09/16 06:30:40;;;;;;;7.47;3.60;;;;;;;23.44;39.89;94442.75;5009635;28;20235;-68
2022/09/16 06:33:06;;;;;;;8.40;2.88;;;;;;;23.41;38.73;94443.22;5007600;28;20223;-68
2022/09/16 06:35:33;;;;;;;9.50;3.00;;;;;;;23.50;38.23;94436.41;5005658;28;20471;-68
2022/09/16 06:37:58;;;;;;;7.72;3.20;;;;;;;23.42;38.59;94444.88;5009504;28;20218;-68
2022/09/16 06:40:24;;;;;;;6.95;2.70;;;;;;;23.49;39.23;94450.84;5009764;28;20225;-68
2022/09/16 06:42:53;;;;;;;7.28;3.03;;;;;;;23.56;38.21;94448.03;5002601;28;20223;-67
2022/09/16 06:45:19;;;;;;;7.18;2.70;;;;;;;23.62;38.12;94454.25;5010788;28;20223;-68
2022/09/16 06:47:45;;;;;;;9.15;3.10;;;;;;;23.70;38.19;94451.16;5008004;28;20206;-63
2022/09/16 06:50:10;;;;;;;11.25;3.03;;;;;;;23.70;37.89;94451.97;5006068;28;20265;-65
2022/09/16 06:52:36;;;;;;;9.20;3.35;;;;;;;23.84;37.44;94451.63;5008024;28;20261;-68
2022/09/16 06:55:01;;;;;;;8.73;2.90;;;;;;;23.83;37.07;94444.66;5005192;28;20226;-64
2022/09/16 06:57:26;;;;;;;7.65;2.72;;;;;;;23.83;37.83;94448.16;5007355;28;20214;-64
2022/09/16 06:59:52;;;;;;;8.50;3.33;;;;;;;23.98;37.99;94450.25;5006079;28;20273;-64
2022/09/16 07:02:18;;;;;;;8.35;2.55;;;;;;;24.06;37.65;94457.84;5008935;28;20198;-69
2022/09/16 07:04:44;;;;;;;7.70;2.70;;;;;;;24.07;36.91;94450.59;5010024;28;20219;-64
2022/09/16 07:07:11;;;;;;;7.50;2.90;;;;;;;23.96;36.94;94455.03;5010477;28;20634;-69
2022/09/16 07:09:37;;;;;;;10.60;2.95;;;;;;;24.04;36.95;94454.59;5007040;28;20298;-64
2022/09/16 07:12:03;;;;;;;9.18;2.80;;;;;;;24.06;36.77;94457.84;5009853;28;20278;-68
2022/09/16 07:14:31;;;;;;;11.68;2.85;;;;;;;24.16;36.53;94466.06;5006797;28;20208;-68
2022/09/16 07:16:57;;;;;;;11.85;3.58;;;;;;;24.17;36.75;94461.50;5007615;28;20313;-69
2022/09/16 07:19:24;;;;;;;8.18;2.97;;;;;;;24.27;37.07;94450.03;5001049;28;20296;-68
2022/09/16 07:21:49;;;;;;;6.82;3.28;;;;;;;24.19;36.90;94457.50;5006086;28;20598;-68
2022/09/16 07:24:14;;;;;;;9.13;2.78;;;;;;;24.32;36.55;94452.78;5009382;28;20309;-68
2022/09/16 07:26:41;;;;;;;8.95;3.08;;;;;;;24.24;38.36;94450.53;5002803;28;20237;-68
2022/09/16 07:29:10;;;;;;;8.90;2.85;;;;;;;24.30;38.21;94447.69;5003757;28;20219;-68
2022/09/16 07:31:36;;;;;;;6.40;2.53;;;;;;;24.45;37.13;94449.75;5009284;28;20245;-68
2022/09/16 07:34:04;;;;;;;10.05;3.78;;;;;;;24.40;37.51;94446.97;5022038;28;20750;-68
2022/09/16 07:36:37;;;;;;;9.93;5.07;;;;;;;24.44;37.94;94448.13;5005468;28;20222;-68
2022/09/16 07:39:03;;;;;;;8.48;3.33;;;;;;;24.41;36.86;94451.28;5004200;28;20269;-68
2022/09/16 07:41:31;;;;;;;6.30;3.00;;;;;;;24.55;36.76;94443.66;5006701;28;20286;-68
2022/09/16 07:43:58;;;;;;;7.00;3.00;;;;;;;24.64;36.78;94428.69;5008999;28;20223;-68
2022/09/16 07:46:26;;;;;;;10.65;3.17;;;;;;;24.70;37.72;94416.94;5007688;28;20245;-67
2022/09/16 07:48:52;;;;;;;6.93;3.08;;;;;;;24.90;35.95;94415.50;5006409;28;20232;-67
2022/09/16 07:51:23;;;;;;;7.07;2.78;;;;;;;24.98;35.84;94413.16;5007323;28;20218;-68
2022/09/16 07:53:58;;;;;;;8.30;3.10;;;;;;;25.16;36.06;94424.63;5000481;28;20211;-67
2022/09/16 07:56:24;;;;;;;16.63;3.88;;;;;;;25.41;36.05;94414.03;5007948;28;20699;-63
2022/09/16 07:58:52;;;;;;;9.60;3.30;;;;;;;25.12;35.13;94426.19;5009225;28;20276;-63
2022/09/16 08:01:18;;;;;;;10.70;2.97;;;;;;;25.14;35.51;94415.97;5009835;28;20288;-67
2022/09/16 08:03:44;;;;;;;6.20;3.30;;;;;;;25.40;35.85;94415.13;5005228;28;20235;-68
2022/09/16 08:06:19;;;;;;;9.73;3.50;;;;;;;25.48;35.78;94408.44;5008974;28;20711;-68
2022/09/16 08:08:45;;;;;;;9.20;3.17;;;;;;;25.57;35.71;94411.47;5009139;28;20202;-68
2022/09/16 08:11:13;;;;;;;9.15;3.38;;;;;;;25.59;35.16;94407.44;5009311;28;20203;-68
2022/09/16 08:13:38;;;;;;;9.13;2.97;;;;;;;25.72;34.80;94415.06;5011401;28;20219;-68
2022/09/16 08:16:07;;;;;;;9.90;3.17;;;;;;;25.94;34.72;94406.03;5011059;28;20710;-68
2022/09/16 08:18:33;;;;;;;7.78;3.10;;;;;;;26.15;34.15;94399.66;5010043;28;20632;-68
2022/09/16 08:21:07;;;;;;;8.50;3.78;;;;;;;26.43;34.23;94399.47;5016572;28;20217;-68
2022/09/16 08:23:34;;;;;;;12.57;3.95;;;;;;;26.40;33.68;94390.81;5011148;28;20198;-68
2022/09/16 08:26:00;;;;;;;8.15;3.33;;;;;;;26.81;33.61;94390.94;5011613;28;20219;-68
2022/09/16 08:28:27;;;;;;;9.40;3.72;;;;;;;26.99;33.19;94386.09;5010760;28;20237;-68
2022/09/16 08:30:52;;;;;;;9.68;3.45;;;;;;;26.93;32.78;94390.66;5010523;28;20243;-68
2022/09/16 08:33:20;;;;;;;9.75;2.97;;;;;;;26.56;33.18;94382.81;5013609;28;20222;-67
2022/09/16 08:35:56;;;;;;;7.38;3.30;;;;;;;26.64;33.19;94390.38;5010773;28;20214;-67
2022/09/16 08:38:21;;;;;;;8.88;3.40;;;;;;;26.84;33.93;94387.72;5010270;28;20207;-67
2022/09/16 08:40:46;;;;;;;10.95;3.70;;;;;;;26.93;33.71;94376.38;5010050;28;20227;-67
2022/09/16 08:43:23;;;;;;;8.40;2.78;;;;;;;26.90;33.42;94376.91;5011649;28;20230;-67
2022/09/16 08:46:15;;;;;;;12.13;3.80;;;;;;;26.98;33.25;94377.19;5010380;28;20610;-66
2022/09/16 08:48:47;;;;;;;8.27;3.70;;;;;;;27.06;33.08;94373.94;5007379;28;20310;-67
2022/09/16 08:51:16;;;;;;;10.52;3.10;;;;;;;26.95;33.98;94368.84;5008080;28;20222;-67
2022/09/16 08:53:53;;;;;;;10.52;3.45;;;;;;;26.81;33.06;94363.97;5005936;28;20243;-68
2022/09/16 08:56:23;;;;;;;8.05;3.30;;;;;;;27.03;32.71;94360.19;5012945;28;20214;-69
2022/09/16 08:58:53;;;;;;;9.40;3.88;;;;;;;27.04;32.46;94359.91;5022895;28;20298;-69
2022/09/16 09:01:34;;;;;;;11.10;3.28;;;;;;;27.10;34.37;94366.09;5009629;28;20234;-68
2022/09/16 09:04:00;;;;;;;11.23;3.50;;;;;;;27.07;33.31;94363.94;5006986;28;20224;-68
2022/09/16 09:06:37;;;;;;;10.07;3.78;;;;;;;27.10;34.26;94365.31;5009773;28;20223;-69
2022/09/16 09:09:21;;;;;;;10.10;3.97;;;;;;;27.14;33.22;94369.09;5010310;28;20279;-69
2022/09/16 09:12:02;;;;;;;8.73;3.28;;;;;;;27.24;35.12;94363.72;5002511;28;20226;-68
2022/09/16 09:14:39;;;;;;;9.18;3.47;;;;;;;27.39;33.54;94379.06;5008606;28;20230;-63
2022/09/16 09:17:05;;;;;;;10.15;3.72;;;;;;;27.47;33.57;94386.63;5010883;28;20226;-63
2022/09/16 09:19:49;;;;;;;6.85;3.50;;;;;;;27.40;33.89;94375.28;5012223;28;20226;-63
2022/09/16 09:22:21;;;;;;;11.05;4.05;;;;;;;27.53;33.14;94374.72;5007295;28;21057;-67
2022/09/16 09:25:00;;;;;;;12.18;3.78;;;;;;;27.58;32.51;94385.50;5005365;28;20219;-67
2022/09/16 09:27:57;;;;;;;9.60;3.78;;;;;;;27.73;32.45;94367.66;5010749;28;20248;-63
2022/09/16 09:30:27;;;;;;;12.00;3.85;;;;;;;27.76;32.30;94367.09;4962203;28;20291;-63
2022/09/16 09:32:55;;;;;;;13.95;3.83;;;;;;;27.71;32.68;94371.44;4967448;28;20204;-67
2022/09/16 09:35:35;;;;;;;14.98;3.90;;;;;;;27.53;32.65;94369.31;4952649;28;20244;-68
2022/09/16 09:38:34;;;;;;;8.85;4.13;;;;;;;27.39;32.78;94373.66;4954107;28;20242;-67
2022/09/16 09:41:17;;;;;;;6.43;3.55;;;;;;;27.13;33.13;94370.16;4962073;28;20263;-66
2022/09/16 09:43:48;;;;;;;11.05;3.95;;;;;;;27.16;32.91;94364.22;4953300;28;20607;-67
2022/09/16 09:46:32;;;;;;;10.70;4.35;;;;;;;27.30;32.85;94369.91;4967218;28;20235;-67
2022/09/16 09:49:12;;;;;;;11.45;3.70;;;;;;;27.09;35.12;94385.28;4969082;28;20329;-67
2022/09/16 09:51:59;;;;;;;14.73;5.25;;;;;;;27.18;34.31;94394.47;4954808;28;20316;-68
2022/09/16 09:54:24;;;;;;;9.65;4.45;;;;;;;27.22;34.98;94388.28;4961190;28;20231;-68
2022/09/16 09:56:54;;;;;;;10.05;3.92;;;;;;;27.10;35.22;94393.09;4963810;28;20765;-68
2022/09/16 09:59:44;;;;;;;12.10;4.80;;;;;;;27.12;36.37;94393.63;4950912;28;20201;-64
2022/09/16 10:02:21;;;;;;;10.45;4.55;;;;;;;27.08;35.49;94395.28;4966719;28;20228;-64
2022/09/16 10:04:47;;;;;;;11.55;4.75;;;;;;;27.06;35.71;94400.94;4943349;28;20220;-64
2022/09/16 10:07:16;;;;;;;14.77;5.10;;;;;;;26.98;36.34;94411.44;5004261;28;20227;-65
2022/09/16 10:09:54;;;;;;;11.30;4.70;;;;;;;26.80;37.15;94421.69;5008314;28;20578;-64
2022/09/16 10:12:31;;;;;;;11.20;4.63;;;;;;;26.64;39.93;94435.41;5005747;28;20306;-63
2022/09/16 10:14:57;;;;;;;10.85;5.72;;;;;;;26.39;39.61;94447.72;5007365;28;20265;-64
2022/09/16 10:17:23;;;;;;;11.60;5.03;;;;;;;26.15;40.17;94461.63;5008891;28;20206;-64
2022/09/16 10:19:58;;;;;;;11.77;4.53;;;;;;;25.91;40.53;94479.28;5003816;28;20296;-63
2022/09/16 10:22:33;;;;;;;10.32;4.15;;;;;;;25.63;39.63;94500.06;5004707;28;20615;-67
2022/09/16 10:25:06;;;;;;;10.55;4.45;;;;;;;25.44;40.33;94523.06;5006803;28;20332;-67
2022/09/16 10:27:34;;;;;;;15.77;4.18;;;;;;;25.19;43.03;94540.63;5006021;28;20233;-63
2022/09/16 10:30:06;;;;;;;9.60;3.80;;;;;;;25.02;45.29;94569.44;5008053;28;20254;-68
2022/09/16 10:32:39;;;;;;;10.50;3.40;;;;;;;24.59;47.68;94609.56;5004975;28;20906;-68
2022/09/16 10:35:07;;;;;;;12.77;3.95;;;;;;;23.92;48.90;94623.06;5006717;28;20768;-68
2022/09/16 10:37:32;;;;;;;8.73;3.78;;;;;;;23.71;50.91;94625.44;4992237;28;20227;-69
2022/09/16 10:39:58;;;;;;;8.98;3.47;;;;;;;23.60;52.33;94623.56;4997855;28;20753;-64
2022/09/16 10:42:26;;;;;;;8.63;3.45;;;;;;;23.50;53.67;94628.78;5004261;28;20241;-69
2022/09/16 10:44:58;;;;;;;6.45;3.38;;;;;;;23.47;54.51;94624.72;5006616;28;20206;-69
2022/09/16 10:47:27;;;;;;;9.88;3.05;;;;;;;23.50;54.34;94618.06;5000946;28;20237;-69
2022/09/16 10:50:02;;;;;;;7.60;2.60;;;;;;;23.48;54.20;94625.53;5006517;28;20803;-64
2022/09/16 10:52:41;;;;;;;7.82;3.25;;;;;;;23.48;55.36;94633.59;5008643;28;20233;-68
2022/09/16 10:55:37;;;;;;;6.75;2.90;;;;;;;23.71;55.24;94619.19;5006440;28;20561;-69
2022/09/16 10:58:21;;;;;;;5.82;2.03;;;;;;;23.46;53.85;94614.22;5002605;28;20785;-65
2022/09/16 11:01:14;;;;;;;5.10;2.10;;;;;;;23.40;54.06;94577.63;5007643;28;20234;-68
2022/09/16 11:04:24;;;;;;;6.07;2.67;;;;;;;23.42;53.89;94559.44;5000311;28;20222;-69
2022/09/16 11:07:31;;;;;;;5.20;2.30;;;;;;;23.73;53.46;94550.00;5006175;28;20309;-70
2022/09/16 11:10:28;;;;;;;3.50;1.98;;;;;;;23.86;51.94;94533.56;5005671;28;20230;-69
2022/09/16 11:13:08;;;;;;;4.50;1.98;;;;;;;24.04;50.26;94518.25;5001317;28;20518;-64
2022/09/16 11:16:00;;;;;;;3.53;1.70;;;;;;;24.80;48.92;94499.56;5002793;28;20231;-69
2022/09/16 11:18:44;;;;;;;2.28;1.80;;;;;;;25.26;47.59;94500.88;4946092;28;20754;-69
2022/09/16 11:21:43;;;;;;;3.40;1.65;;;;;;;25.64;46.04;94473.97;4966467;28;20230;-66
2022/09/16 11:24:47;;;;;;;2.85;1.35;;;;;;;26.06;43.80;94463.22;4961327;28;20307;-65
2022/09/16 11:27:31;;;;;;;3.17;1.30;;;;;;;26.45;41.16;94456.63;4964712;28;20221;-65
2022/09/16 11:30:09;;;;;;;3.22;1.50;;;;;;;26.77;40.01;94438.41;4951417;28;20412;-68
2022/09/16 11:33:13;;;;;;;3.75;1.30;;;;;;;26.67;39.67;94432.97;4964797;28;20207;-65
2022/09/16 11:36:16;;;;;;;3.20;1.15;;;;;;;27.08;37.74;94416.03;4959103;28;20264;-69
2022/09/16 11:39:03;;;;;;;1.02;0.90;;;;;;;27.67;35.63;94410.09;4948848;28;20743;-68
2022/09/16 11:41:31;;;;;;;2.45;1.02;;;;;;;28.08;33.32;94404.59;4967560;28;20262;-69
2022/09/16 11:44:14;;;;;;;1.92;0.93;;;;;;;28.57;31.77;94401.94;4964240;28;20249;-69
2022/09/16 11:46:58;;;;;;;1.52;1.00;;;;;;;29.30;31.34;94407.66;4951305;28;20274;-68
2022/09/16 11:49:45;;;;;;;1.13;0.95;;;;;;;29.64;30.63;94405.78;4955511;28;20232;-68
2022/09/16 11:52:58;;;;;;;3.05;1.15;;;;;;;29.49;29.23;94400.47;4953480;28;20227;-68
2022/09/16 11:55:36;;;;;;;1.67;1.15;;;;;;;29.79;30.20;94385.81;4909157;29;20232;-68
2022/09/16 11:58:20;;;;;;;2.88;1.10;;;;;;;29.95;30.38;94388.38;4950543;29;20237;-68